Yakov Medvedev

Jefe de ojeadores - Dinamo Vologda
13 Feb 2028
Domingo
Continuar

Personalidad

Adaptabilidad (17) Ambición (10) Controversia (18) Lealtad (4) Presión (10) Profesionalismo (4) Deportividad (9) Temperamento (17)

Perfil

Estilo de dirección Democrático
Licencia Continental Pro
Determinación 4
Gestión de personas 5
Motivación 4
Disciplina 7
Satisfacción laboral
100%
Fatiga
0%
Cargo Jefe de ojeadores
Salario 19.9K p/s
Contrato 14.03.2028

Rendimiento

Comportamiento Bueno
Efectividad del entrenamiento
18%
Desarrollo de jugadores
15%
Prevención de lesiones
35%
Implementación táctica
5%

Eventos recientes

Negociación de contrato iniciada ahora
Asistió a una reunión de captación ahora
Negociación de contrato iniciada ahora
Negociación de contrato iniciada ahora
Negociación de contrato iniciada ahora
Negociación de contrato iniciada 7d atrás
Negociación de contrato iniciada 7d atrás
Negociación de contrato iniciada 7d atrás

Actualmente siguiendo

116
Jugador Club Estado Habilidad Confianza Observado Última observación Último voto
Beka Djanelidze Rubin Yalta Activo 65 / 61 40% 1 11.06.2027 -
Asker Delok Druzhba Activo 74 / 62 40% 1 11.06.2027 -
Ilja Gruznov Khimik Activo 81 / 82 40% 4 09.06.2027 -
Egor Yuschenko Lida Activo 88 / 76 40% 1 09.06.2027 -
Dmitry Kuptsov Spartak Tambov Activo 92 / 77 40% 7 08.06.2027 -
Alexey Skvortsov Metallurg Activo 75 / 80 40% 2 08.06.2027 -
Renatto Chira Spartak 1918 Activo 85 / 83 40% 1 07.06.2027 -
James Rodrigues Nart Activo 68 / 91 40% 7 03.06.2027 -
Valeriy Gorbachik Arsenal Dzerzhinsk Activo 94 / 80 40% 1 03.06.2027 -
Carlos Zepeda Zvezda Activo 84 / 92 40% 6 30.05.2027 -
Alexandr Shlenkin Dinamo Bryansk Activo 79 / 66 40% 6 30.05.2027 -
Vladislav Agalakov Metallurg Activo 78 / 64 40% 3 28.05.2027 -
Vitaly Dunay (Karpenko) Chaika Activo 95 / 87 40% 7 28.05.2027 -
Tobías Dieni Ryazan Activo 72 / 67 40% 8 26.05.2027 -
Daniil Arsentjev Orel Activo 82 / 80 40% 3 26.05.2027 -
Amur Kalmykov Spartak Kostroma Activo 114 / 113 40% 1 25.05.2027 -
Gonçalo Encarnação Angusht Activo 56 / 59 40% 3 23.05.2027 -
Soslan Lysenko Spartak Nalchik Activo 70 / 82 40% 5 22.05.2027 -
Nicolás Campos Central Espanol Activo 90 / 112 40% 1 22.05.2027 -
Dmitry Solovjov Chertanovo Activo 77 / 64 40% 1 20.05.2027 -
Maxim Lauk Dinamo Kirov Activo 74 / 73 40% 1 20.05.2027 -
Ville Nilsson Metallurg Activo 87 / 74 40% 6 18.05.2027 -
Magomed Nasibov Pobeda Activo 84 / 97 40% 6 17.05.2027 -
Dmitry Prokhorov Rubin Activo 62 / 83 40% 1 17.05.2027 -
Nikita Pogrebnev Ryazan Activo 68 / 74 40% 3 16.05.2027 -
Yegor Ponomarev Tver Activo 83 / 85 40% 2 14.05.2027 -
Mevran Ablak Angusht Activo 71 / 88 40% 2 14.05.2027 -
Mikhail Gainov Dinamo Stavropol Activo 86 / 82 40% 6 13.05.2027 -
Yegor Pankov Luki-Energiya Activo 61 / 63 40% 4 08.05.2027 -
Nikita Chugunov Volna Activo 75 / 65 40% 1 08.05.2027 -
Sergey Guzyuk Strogino Activo 56 / 63 40% 2 04.05.2027 -
Wilman Moreira Irkutsk Activo 71 / 78 40% 1 02.05.2027 -
Ismail Dibirov Dinamo Kirov Activo 93 / 97 40% 2 25.04.2027 -
Rizvan Umarov Dinamo St Petersburg Activo 67 / 88 40% 3 24.04.2027 -
Morgan Arnstad Chaika Activo 79 / 80 40% 1 23.04.2027 -
Alen Vukaj Alcione Milano Activo 87 / 84 40% 1 23.04.2027 -
Arseny Vainer Nosta Activo 69 / 72 40% 3 21.04.2027 -
Vyacheslav Purak Rubin Yalta Activo 84 / 73 40% 3 21.04.2027 -
João Tavares Porto Activo 54 / 80 40% 1 20.04.2027 -
Alexandr Olenev Nart Activo 76 / 88 40% 3 19.04.2027 -
Rashid Salimov Pobeda Activo 58 / 70 40% 2 17.04.2027 -
Wojciech Szafranek Zenit Penza Activo 76 / 81 40% 1 16.04.2027 -
Pavel Popov Volna Activo 86 / 76 40% 4 15.04.2027 -
Anzor Khutov Mashuk Activo 95 / 75 40% 1 08.04.2027 -
Zakhar Tarasenko Veles Activo 78 / 96 40% 1 05.04.2027 -
Vladislav Shpitalny Sokol Activo 102 / 88 40% 2 03.04.2027 -
Grigory Kosenko Tver Activo 46 / 61 40% 1 02.04.2027 -
Kirill Mogel Dinamo Barnaul Activo 75 / 71 40% 2 01.04.2027 -
Omar Popov Dinamo St Petersburg Activo 77 / 86 40% 3 27.03.2027 -
Ilja Grischenko Kaluga Activo 77 / 77 40% 2 23.03.2027 -
Sergey Gaiduk Salyut Activo 90 / 73 40% 7 22.03.2027 -
Fabrizio Fazzolari Legion Activo 60 / 65 40% 1 22.03.2027 -
Evgeny Tyukalov Amkar Activo 69 / 67 40% 1 21.03.2027 -
Daniil Agureev Amkar Activo 95 / 89 40% 1 15.03.2027 -
Maxim Dmitriev Tyumen Activo 89 / 71 40% 2 13.03.2027 -
Ilja Stefanovich Leningradets Activo 84 / 96 40% 1 11.03.2027 -
Ilja Antsiferov Angusht Activo 73 / 69 40% 1 10.03.2027 -
Islam Tlupov Spartak Nalchik Activo 71 / 61 40% 1 15.02.2027 -
Shamil Saaduev Pobeda Activo 86 / 82 40% 1 24.01.2027 -
Artem Shabolin Nosta Activo 67 / 72 40% 3 23.01.2027 -
Timur Kim Arsenal Tula Activo 63 / 59 40% 2 20.01.2027 -
Ivan Gulko KAMAZ Activo 86 / 86 40% 1 18.01.2027 -
Artem Ntumba Rubin Yalta Activo 66 / 80 40% 2 16.01.2027 -
Nikita Khlusov Kuban Holding Activo 61 / 74 40% 2 14.01.2027 -
Bilal Bilalov Dinamo Kirov Activo 89 / 80 40% 1 14.01.2027 -
Kirill Bogdanets Volna Activo 78 / 98 40% 2 11.01.2027 -
Dmitry Usov Textilschik Activo 87 / 82 40% 3 09.01.2027 -
Nikita Rozhkov Saturn Activo 69 / 86 40% 1 09.01.2027 -
Nazar Makeev Akron Activo 67 / 60 40% 1 08.01.2027 -
Maxim Kutovoy Salyut Activo 79 / 78 40% 3 07.01.2027 -
Sergey Gribov Dinamo Bryansk Activo 81 / 91 40% 3 06.01.2027 -
Dmitry Pereverzev Nart Activo 62 / 69 40% 2 05.01.2027 -
Gevork Sarkisyan Saturn Activo 74 / 85 40% 2 05.01.2027 -
Anton Gurylev Pobeda Activo 69 / 76 40% 2 02.01.2027 -
Artem Stepanovich Sevastopol Activo 87 / 77 40% 1 02.01.2027 -
Alimkhan Alimkhanov Torpedo Vladimir Activo 74 / 60 40% 2 29.12.2026 -
Magomed Ibragimov Legion Activo 62 / 58 40% 1 22.12.2026 -
Nikita Kuzin Kaluga Activo 94 / 76 40% 3 03.12.2026 -
Vladislav Bragin SKA Khabarovsk Activo 87 / 89 40% 1 03.12.2026 -
Gocha Gogrichiani Volna Activo 88 / 78 40% 2 01.12.2026 -
Igor Tursunov Kuban Activo 81 / 80 40% 1 29.11.2026 -
Yury Rudakov Chelyabinsk Activo 52 / 67 40% 1 22.11.2026 -
Ivan Selemenev Mashuk Activo 88 / 93 40% 2 19.11.2026 -
Alexandr Komissarov Torpedo Vladimir Activo 72 / 61 40% 3 13.11.2026 -
Daniil Konoplev Dinamo Bryansk Activo 89 / 73 40% 2 13.11.2026 -
Dmitry Zakharov Avangard Activo 72 / 81 40% 1 09.11.2026 -
Evgeniy Kasevich Smorgon Activo 64 / 81 40% 1 30.10.2026 -
Matvey Ivakhnov Mashuk Activo 83 / 65 40% 1 28.10.2026 -
Matvey Martinkevich Dinamo Kirov Activo 83 / 88 40% 1 26.10.2026 -
Ilya Tishurov Osipovichi Activo 72 / 82 40% 1 26.10.2026 -
Artemy Ukomskiy Leningradets Activo 80 / 90 40% 1 24.10.2026 -
Arseniy Zhukovskiy Slonim Activo 67 / 85 40% 1 21.10.2026 -
Artem Stankevich Smorgon Activo 81 / 78 40% 2 20.10.2026 -
Zakhar Chervyakov Vitebsk Activo 76 / 85 40% 1 18.10.2026 -
Ilya Bondarenko Minsk Activo 87 / 68 40% 2 16.10.2026 -
Genaro Rossi San Martín SJ Activo 120 / 92 40% 1 13.10.2026 -
Thiago Perugini San Lorenzo Activo 113 / 94 40% 1 10.10.2026 -
Mikhail Ageev Kuban Activo 94 / 85 40% 1 09.10.2026 -
Bruno Hernández Cerro Largo Activo 74 / 101 40% 1 08.10.2026 -
Oleg Tyulkov Osipovichi Activo 54 / 60 40% 1 07.10.2026 -
Alexandr Shvedchikov BATE Activo 72 / 71 40% 1 07.10.2026 -
Vladislav Fedosov Slutsk Activo 91 / 90 40% 2 07.09.2026 -
Ruslan Gogniev Lida Activo 67 / 67 40% 1 02.09.2026 -
Dmitry Serebryakov Cherepovets Activo 55 / 72 55% 1 31.08.2026 -
Stanislav Stefanovich Baranovichi Activo 73 / 81 40% 1 24.08.2026 -
Mauricio Di Gubio Godoy Cruz Activo 94 / 95 40% 1 21.08.2026 -
Guljigit Borubaev Neman Activo 97 / 104 40% 1 19.08.2026 -
Osman Koroma Tammeka Activo 84 / 80 40% 1 19.08.2026 -
Tadas Mikoliunas Utenis Activo 86 / 89 40% 1 18.08.2026 -
Maxim Kravtsov Neman Activo 81 / 91 40% 1 17.08.2026 -
Vladislav Chebotar Slutsk Activo 69 / 72 40% 1 17.08.2026 -
Nikita Simdyankin KDV Tomsk Activo 84 / 94 40% 1 13.08.2026 -
Jorge Gonzalez Viitorul Activo 94 / 96 40% 1 08.08.2026 -
Christian Franco Oriental Activo 83 / 81 40% 1 02.08.2026 -
Lisandro Cabrera Maipú Activo 96 / 97 40% 1 02.08.2026 -
Marcos Montiel Central Espanol Activo 117 / 128 40% 1 01.08.2026 -